Time;durP1;ratioP1;P1;durP2;ratioP2;P2;SDS_P1;SDS_P2;PMS_P1;PMS_P2;Temp;Humidity;BMP_temperature;BMP_pressure;BME280_temperature;BME280_humidity;BME280_pressure;Samples;Min_cycle;Max_cycle;Signal;HPM_P1;HPM_P2
2023/02/23 00:01:10;;;;;;;44.53;19.67;;;;;;;;;;5053526;28;20049;-81
2023/02/23 00:03:39;;;;;;;40.63;19.40;;;;;;;;;;5052650;28;20490;-80
2023/02/23 00:06:07;;;;;;;45.83;19.63;;;;;;;;;;5053378;28;20107;-80
2023/02/23 00:08:35;;;;;;;41.55;19.98;;;;;;;;;;5053167;28;20481;-81
2023/02/23 00:11:02;;;;;;;38.53;18.00;;;;;;;;;;5053007;28;20048;-79
2023/02/23 00:13:29;;;;;;;46.97;20.30;;;;;;;;;;5053526;28;20128;-82
2023/02/23 00:15:55;;;;;;;41.55;19.17;;;;;;;;;;5053222;28;20052;-80
2023/02/23 00:18:21;;;;;;;38.45;18.27;;;;;;;;;;5053322;28;20513;-80
2023/02/23 00:20:56;;;;;;;42.58;19.85;;;;;;;;;;5052291;28;20172;-80
2023/02/23 00:23:26;;;;;;;40.17;18.85;;;;;;;;;;5053031;28;20052;-81
2023/02/23 00:25:52;;;;;;;41.30;19.50;;;;;;;;;;5051702;28;20068;-80
2023/02/23 00:28:18;;;;;;;41.97;19.27;;;;;;;;;;5033191;28;20049;-80
2023/02/23 00:30:45;;;;;;;45.72;19.17;;;;;;;;;;5033161;28;20053;-80
2023/02/23 00:33:11;;;;;;;41.80;19.48;;;;;;;;;;5033328;28;20049;-80
2023/02/23 00:35:38;;;;;;;40.13;18.98;;;;;;;;;;5032566;28;20056;-80
2023/02/23 00:38:04;;;;;;;39.53;18.17;;;;;;;;;;5031992;28;20128;-80
2023/02/23 00:40:31;;;;;;;41.72;18.80;;;;;;;;;;5032150;28;20045;-80
2023/02/23 00:42:57;;;;;;;37.33;17.88;;;;;;;;;;5033992;28;20052;-80
2023/02/23 00:45:23;;;;;;;39.05;17.77;;;;;;;;;;5046862;28;20145;-80
2023/02/23 00:47:50;;;;;;;36.72;17.27;;;;;;;;;;5047928;28;20045;-80
2023/02/23 00:50:16;;;;;;;43.35;18.42;;;;;;;;;;5048151;28;20061;-80
2023/02/23 00:52:43;;;;;;;37.92;17.75;;;;;;;;;;5043333;28;20060;-81
2023/02/23 00:55:11;;;;;;;36.97;17.75;;;;;;;;;;5032061;28;20109;-80
2023/02/23 00:57:37;;;;;;;35.85;16.27;;;;;;;;;;5032240;28;20417;-79
2023/02/23 01:00:20;;;;;;;42.50;18.10;;;;;;;;;;5032049;28;20140;-79
2023/02/23 01:02:49;;;;;;;43.00;18.77;;;;;;;;;;5032727;28;20049;-80
2023/02/23 01:05:15;;;;;;;39.67;17.65;;;;;;;;;;5033353;28;20079;-80
2023/02/23 01:07:45;;;;;;;35.97;17.92;;;;;;;;;;5031724;28;20049;-80
2023/02/23 01:10:18;;;;;;;37.22;17.80;;;;;;;;;;5032712;28;20057;-80
2023/02/23 01:12:53;;;;;;;36.03;16.92;;;;;;;;;;5049821;28;20189;-80
2023/02/23 01:15:20;;;;;;;37.60;17.52;;;;;;;;;;5053867;28;20060;-81
2023/02/23 01:17:46;;;;;;;39.75;17.70;;;;;;;;;;5052666;28;20048;-82
2023/02/23 01:20:16;;;;;;;33.45;17.23;;;;;;;;;;5052721;28;20659;-81
2023/02/23 01:22:47;;;;;;;35.15;16.75;;;;;;;;;;5052065;28;20561;-81
2023/02/23 01:25:15;;;;;;;33.78;17.25;;;;;;;;;;5053668;28;20049;-81
2023/02/23 01:27:44;;;;;;;34.15;17.33;;;;;;;;;;5037086;28;20060;-82
2023/02/23 01:30:13;;;;;;;32.38;16.70;;;;;;;;;;5034851;28;20098;-82
2023/02/23 01:32:40;;;;;;;34.20;16.88;;;;;;;;;;5033999;28;20069;-81
2023/02/23 01:35:07;;;;;;;38.50;17.75;;;;;;;;;;5036024;28;20121;-82
2023/02/23 01:37:34;;;;;;;32.78;16.67;;;;;;;;;;5034695;28;20073;-81
2023/02/23 01:40:09;;;;;;;32.30;17.10;;;;;;;;;;5036259;28;20089;-81
2023/02/23 01:42:37;;;;;;;35.80;16.87;;;;;;;;;;5037204;28;20113;-81
2023/02/23 01:45:16;;;;;;;33.63;16.83;;;;;;;;;;5042055;28;20101;-80
2023/02/23 01:47:42;;;;;;;36.92;15.82;;;;;;;;;;5047719;28;20045;-80
2023/02/23 01:50:10;;;;;;;34.80;16.40;;;;;;;;;;5052400;28;20064;-79
2023/02/23 01:52:38;;;;;;;31.13;16.23;;;;;;;;;;5033731;28;20055;-80
2023/02/23 01:55:05;;;;;;;36.92;16.17;;;;;;;;;;5052122;28;20120;-80
2023/02/23 01:57:31;;;;;;;30.77;15.85;;;;;;;;;;5035045;28;20120;-79
2023/02/23 01:59:58;;;;;;;34.10;15.95;;;;;;;;;;5035353;28;20498;-80
2023/02/23 02:02:32;;;;;;;32.13;15.98;;;;;;;;;;5035888;28;20115;-80
2023/02/23 02:04:59;;;;;;;29.15;15.52;;;;;;;;;;5036431;28;20045;-81
2023/02/23 02:07:28;;;;;;;31.88;15.40;;;;;;;;;;5017314;28;20049;-81
2023/02/23 02:12:38;;;;;;;34.10;15.48;;;;;;;;;;5036538;28;20067;-82
2023/02/23 02:15:06;;;;;;;31.55;15.05;;;;;;;;;;5037265;28;20045;-82
2023/02/23 02:17:39;;;;;;;34.83;16.67;;;;;;;;;;5019076;28;20049;-81
2023/02/23 02:20:17;;;;;;;29.85;14.77;;;;;;;;;;5040233;28;20055;-81
2023/02/23 02:22:50;;;;;;;34.50;16.15;;;;;;;;;;5036616;28;20055;-81
2023/02/23 02:25:19;;;;;;;31.23;15.10;;;;;;;;;;5034555;28;20305;-81
2023/02/23 02:28:02;;;;;;;33.63;15.40;;;;;;;;;;5034796;28;20116;-81
2023/02/23 02:30:44;;;;;;;32.75;15.05;;;;;;;;;;5054478;28;20106;-81
2023/02/23 02:33:17;;;;;;;29.45;14.75;;;;;;;;;;5054506;28;20136;-82
2023/02/23 02:35:56;;;;;;;33.67;15.73;;;;;;;;;;5054559;28;20135;-81
2023/02/23 02:38:45;;;;;;;29.73;14.38;;;;;;;;;;5053013;28;20139;-81
2023/02/23 02:41:12;;;;;;;31.58;15.07;;;;;;;;;;5054034;28;20056;-81
2023/02/23 02:43:52;;;;;;;33.45;14.70;;;;;;;;;;5054729;28;20053;-81
2023/02/23 02:46:21;;;;;;;30.38;14.80;;;;;;;;;;5036275;28;20104;-82
2023/02/23 02:48:48;;;;;;;29.60;14.90;;;;;;;;;;5053720;28;20106;-81
2023/02/23 02:51:17;;;;;;;27.90;14.15;;;;;;;;;;5046578;28;20101;-81
2023/02/23 02:53:43;;;;;;;32.35;15.82;;;;;;;;;;5023051;28;20388;-78
2023/02/23 02:56:11;;;;;;;29.95;15.38;;;;;;;;;;5025916;28;20152;-79
2023/02/23 02:58:41;;;;;;;30.73;15.00;;;;;;;;;;5033958;28;20142;-80
2023/02/23 04:18:24;;;;;;;34.00;15.32;;;;;;;;;;5032083;28;20445;-80
2023/02/23 04:20:50;;;;;;;33.03;14.43;;;;;;;;;;5031384;28;20066;-80
2023/02/23 04:23:17;;;;;;;32.97;15.00;;;;;;;;;;5032291;28;20068;-79
2023/02/23 04:25:43;;;;;;;30.73;14.45;;;;;;;;;;5031879;28;20049;-80
2023/02/23 04:28:10;;;;;;;27.27;13.98;;;;;;;;;;5052561;28;20045;-80
2023/02/23 04:30:39;;;;;;;31.27;13.52;;;;;;;;;;5053047;28;20053;-81
2023/02/23 04:33:06;;;;;;;29.10;14.77;;;;;;;;;;5055314;28;20098;-82
2023/02/23 04:35:34;;;;;;;31.55;14.40;;;;;;;;;;5055361;28;20049;-81
2023/02/23 04:38:00;;;;;;;29.02;13.80;;;;;;;;;;5053807;28;20112;-81
2023/02/23 04:40:27;;;;;;;27.67;13.48;;;;;;;;;;5052668;28;20045;-81
2023/02/23 04:42:53;;;;;;;33.92;15.43;;;;;;;;;;5054687;28;20501;-81
2023/02/23 04:45:21;;;;;;;36.42;17.08;;;;;;;;;;5058523;28;20158;-80
2023/02/23 04:47:47;;;;;;;32.90;15.48;;;;;;;;;;5062407;28;20053;-79
2023/02/23 04:50:19;;;;;;;32.40;15.20;;;;;;;;;;5064091;28;20045;-79
2023/02/23 04:52:45;;;;;;;32.45;16.20;;;;;;;;;;5065637;28;20360;-80
2023/02/23 04:55:16;;;;;;;32.15;16.25;;;;;;;;;;5062839;28;20108;-79
2023/02/23 04:57:43;;;;;;;35.35;15.57;;;;;;;;;;5055768;28;20053;-80
2023/02/23 05:00:11;;;;;;;35.28;15.98;;;;;;;;;;5055685;28;20051;-80
2023/02/23 05:02:38;;;;;;;34.22;16.05;;;;;;;;;;5053784;28;20080;-80
2023/02/23 05:05:05;;;;;;;29.70;14.85;;;;;;;;;;5041541;28;20048;-78
2023/02/23 05:07:32;;;;;;;33.17;15.85;;;;;;;;;;5056948;28;20114;-79
2023/02/23 05:09:59;;;;;;;36.05;15.65;;;;;;;;;;5054961;28;20081;-80
2023/02/23 05:12:25;;;;;;;30.33;15.00;;;;;;;;;;5056955;28;20068;-79
2023/02/23 05:14:55;;;;;;;28.52;14.50;;;;;;;;;;5056459;28;20139;-80
2023/02/23 05:17:21;;;;;;;33.50;16.73;;;;;;;;;;5055998;28;20053;-81
2023/02/23 05:19:48;;;;;;;33.53;16.98;;;;;;;;;;5055108;28;20205;-80
2023/02/23 05:22:14;;;;;;;36.25;17.92;;;;;;;;;;5056216;28;20056;-80
2023/02/23 05:24:41;;;;;;;36.70;17.50;;;;;;;;;;5057844;28;20284;-81
2023/02/23 05:27:08;;;;;;;33.83;15.93;;;;;;;;;;5047956;28;20072;-81
2023/02/23 05:29:34;;;;;;;32.78;16.65;;;;;;;;;;5039054;28;20042;-82
2023/02/23 05:32:01;;;;;;;34.55;17.75;;;;;;;;;;5038668;28;20049;-81
2023/02/23 05:34:28;;;;;;;36.10;15.90;;;;;;;;;;5037896;28;20341;-81
2023/02/23 05:36:54;;;;;;;29.58;15.38;;;;;;;;;;5020840;28;20421;-81
2023/02/23 05:39:21;;;;;;;28.98;14.48;;;;;;;;;;5038344;28;20133;-81
2023/02/23 05:41:47;;;;;;;28.15;13.95;;;;;;;;;;5037794;28;20088;-82
2023/02/23 05:44:14;;;;;;;27.38;14.27;;;;;;;;;;5037181;28;20041;-81
2023/02/23 05:46:40;;;;;;;29.65;14.80;;;;;;;;;;5037130;28;20053;-81
2023/02/23 05:49:07;;;;;;;27.98;13.35;;;;;;;;;;5038352;28;20049;-81
2023/02/23 05:51:33;;;;;;;24.08;12.52;;;;;;;;;;5037230;28;20053;-79
2023/02/23 05:54:00;;;;;;;26.65;13.00;;;;;;;;;;5036499;28;20953;-79
2023/02/23 05:56:27;;;;;;;27.75;12.68;;;;;;;;;;5036243;28;20117;-80
2023/02/23 05:58:54;;;;;;;23.52;12.18;;;;;;;;;;5037106;28;20513;-80
2023/02/23 06:01:21;;;;;;;24.45;12.23;;;;;;;;;;5036841;28;20050;-80
2023/02/23 06:03:47;;;;;;;23.85;12.10;;;;;;;;;;5037459;28;20098;-81
2023/02/23 06:06:14;;;;;;;20.83;11.73;;;;;;;;;;5046774;28;20080;-79
2023/02/23 06:08:41;;;;;;;21.67;11.43;;;;;;;;;;5031829;28;20045;-81
2023/02/23 06:11:08;;;;;;;20.80;11.45;;;;;;;;;;5050640;28;20049;-80
2023/02/23 06:13:34;;;;;;;23.98;11.10;;;;;;;;;;5048992;28;20053;-82
2023/02/23 06:16:01;;;;;;;23.92;11.95;;;;;;;;;;5035354;28;20057;-82
2023/02/23 06:18:28;;;;;;;22.95;11.20;;;;;;;;;;5017832;28;20073;-82
2023/02/23 06:20:57;;;;;;;18.77;10.55;;;;;;;;;;5034686;28;20076;-82
2023/02/23 06:23:23;;;;;;;22.35;11.07;;;;;;;;;;5035658;28;20050;-83
2023/02/23 06:25:50;;;;;;;19.88;10.38;;;;;;;;;;5033211;28;20056;-81
2023/02/23 06:28:17;;;;;;;21.83;11.13;;;;;;;;;;5018567;28;20279;-81
2023/02/23 06:30:45;;;;;;;23.17;11.57;;;;;;;;;;5034613;28;20497;-81
2023/02/23 06:33:12;;;;;;;26.90;12.32;;;;;;;;;;5035145;28;20104;-81
2023/02/23 06:35:38;;;;;;;28.33;12.77;;;;;;;;;;5033660;28;20049;-81
2023/02/23 06:38:05;;;;;;;30.55;13.52;;;;;;;;;;5034471;28;20100;-81
2023/02/23 06:40:32;;;;;;;31.70;15.40;;;;;;;;;;5032927;28;20076;-81
2023/02/23 06:42:59;;;;;;;32.35;15.00;;;;;;;;;;5034765;28;20528;-80
2023/02/23 06:45:25;;;;;;;32.88;15.23;;;;;;;;;;5034931;28;20049;-81
2023/02/23 06:47:52;;;;;;;26.63;14.35;;;;;;;;;;5034451;28;20418;-81
2023/02/23 06:50:19;;;;;;;27.15;13.52;;;;;;;;;;5016774;28;20087;-80
2023/02/23 06:52:45;;;;;;;21.30;11.70;;;;;;;;;;5037069;28;20063;-80
2023/02/23 06:55:14;;;;;;;22.52;12.10;;;;;;;;;;5033925;28;20136;-81
2023/02/23 06:57:42;;;;;;;23.48;11.82;;;;;;;;;;5037672;28;20054;-81
2023/02/23 07:00:13;;;;;;;23.13;12.05;;;;;;;;;;5033488;28;20049;-81
2023/02/23 07:02:40;;;;;;;20.33;11.45;;;;;;;;;;5033863;28;20427;-81
2023/02/23 07:05:07;;;;;;;23.73;12.15;;;;;;;;;;5033663;28;20076;-81
2023/02/23 07:07:33;;;;;;;20.48;11.60;;;;;;;;;;5034003;28;20052;-80
2023/02/23 07:10:00;;;;;;;21.85;11.40;;;;;;;;;;5031914;28;20133;-80
2023/02/23 07:12:26;;;;;;;20.67;11.10;;;;;;;;;;5034962;28;20052;-79
2023/02/23 07:14:53;;;;;;;23.42;11.38;;;;;;;;;;5015981;28;20053;-81
2023/02/23 07:17:19;;;;;;;21.73;11.15;;;;;;;;;;5016064;28;20053;-81
2023/02/23 07:19:46;;;;;;;18.63;10.93;;;;;;;;;;5033105;28;20061;-81
2023/02/23 07:22:14;;;;;;;23.70;11.40;;;;;;;;;;5034359;28;20537;-81
2023/02/23 07:24:41;;;;;;;18.67;10.93;;;;;;;;;;5031165;28;20136;-81
2023/02/23 07:27:07;;;;;;;21.67;10.93;;;;;;;;;;5045322;28;20045;-81
2023/02/23 07:29:33;;;;;;;17.83;10.07;;;;;;;;;;5054558;28;20045;-82
2023/02/23 07:32:02;;;;;;;19.50;11.02;;;;;;;;;;5054471;28;20513;-81
2023/02/23 07:34:29;;;;;;;20.23;10.82;;;;;;;;;;5053612;28;20057;-82
2023/02/23 07:36:55;;;;;;;19.15;10.48;;;;;;;;;;5038916;28;20132;-82
2023/02/23 07:39:22;;;;;;;18.63;10.35;;;;;;;;;;5056379;28;20057;-82
2023/02/23 07:41:48;;;;;;;18.45;10.50;;;;;;;;;;5057811;28;20064;-81
2023/02/23 07:44:18;;;;;;;19.45;10.25;;;;;;;;;;5039920;28;20049;-81
2023/02/23 07:46:45;;;;;;;19.27;10.60;;;;;;;;;;5054212;28;20124;-81
2023/02/23 07:49:12;;;;;;;18.98;10.55;;;;;;;;;;5052817;28;20489;-81
2023/02/23 07:51:39;;;;;;;23.20;10.95;;;;;;;;;;5036491;28;20049;-81
2023/02/23 07:54:06;;;;;;;20.25;10.50;;;;;;;;;;5051383;28;20110;-81
2023/02/23 07:56:34;;;;;;;19.45;9.48;;;;;;;;;;5034188;28;20379;-81
2023/02/23 07:59:01;;;;;;;19.15;9.60;;;;;;;;;;5055299;28;20140;-81
2023/02/23 08:01:27;;;;;;;17.80;9.85;;;;;;;;;;5056514;28;20049;-82
2023/02/23 08:03:54;;;;;;;18.45;10.10;;;;;;;;;;5059455;28;20457;-82
2023/02/23 08:06:20;;;;;;;20.98;10.65;;;;;;;;;;5055630;28;20473;-82
2023/02/23 08:12:18;;;;;;;20.10;9.85;;;;;;;;;;4972521;28;20149;-80
2023/02/23 08:14:45;;;;;;;19.10;9.27;;;;;;;;;;5054071;28;20071;-81
2023/02/23 08:17:12;;;;;;;20.98;9.75;;;;;;;;;;5054115;28;20076;-82
2023/02/23 08:19:38;;;;;;;17.10;8.95;;;;;;;;;;5053525;28;20057;-82
2023/02/23 08:22:05;;;;;;;16.80;9.82;;;;;;;;;;5054357;28;20095;-82
2023/02/23 08:24:35;;;;;;;19.77;9.25;;;;;;;;;;5052352;28;20053;-81
2023/02/23 08:27:02;;;;;;;21.98;9.93;;;;;;;;;;5036454;28;20044;-83
2023/02/23 08:29:28;;;;;;;15.02;8.43;;;;;;;;;;5036015;28;20052;-81
2023/02/23 08:31:55;;;;;;;17.73;10.02;;;;;;;;;;5054003;28;20110;-80
2023/02/23 08:34:22;;;;;;;17.88;9.48;;;;;;;;;;5053228;28;20135;-81
2023/02/23 08:36:49;;;;;;;16.55;9.65;;;;;;;;;;5036176;28;20075;-81
2023/02/23 08:39:15;;;;;;;15.68;8.90;;;;;;;;;;5051718;28;20053;-81
2023/02/23 08:41:42;;;;;;;17.25;8.98;;;;;;;;;;5053369;28;20104;-83
2023/02/23 08:44:08;;;;;;;17.20;9.52;;;;;;;;;;5052488;28;20045;-80
2023/02/23 08:46:35;;;;;;;15.63;8.63;;;;;;;;;;5054653;28;20045;-82
2023/02/23 08:49:03;;;;;;;14.60;8.05;;;;;;;;;;5055466;28;20393;-80
2023/02/23 08:51:30;;;;;;;14.63;7.72;;;;;;;;;;5051626;28;20079;-82
2023/02/23 08:53:56;;;;;;;14.77;8.18;;;;;;;;;;5049778;28;20057;-80
2023/02/23 08:56:24;;;;;;;15.38;8.40;;;;;;;;;;5051283;28;20052;-81
2023/02/23 08:58:51;;;;;;;16.27;8.63;;;;;;;;;;5051401;28;20048;-80
2023/02/23 09:01:20;;;;;;;13.40;8.05;;;;;;;;;;5033183;28;20323;-81
2023/02/23 09:03:47;;;;;;;16.83;8.88;;;;;;;;;;5050671;28;20045;-80
2023/02/23 09:06:16;;;;;;;15.13;8.43;;;;;;;;;;5036635;28;20113;-81
2023/02/23 09:08:42;;;;;;;14.75;8.10;;;;;;;;;;5052255;28;20128;-80
2023/02/23 09:11:09;;;;;;;13.75;8.40;;;;;;;;;;5052412;28;20068;-81
2023/02/23 09:13:35;;;;;;;16.67;8.30;;;;;;;;;;5051259;28;20053;-81
2023/02/23 09:16:06;;;;;;;16.85;8.82;;;;;;;;;;5052054;28;20057;-82
2023/02/23 09:18:33;;;;;;;14.82;8.43;;;;;;;;;;5051941;28;20053;-80
2023/02/23 09:21:05;;;;;;;15.98;9.20;;;;;;;;;;5035037;28;20064;-81
2023/02/23 09:23:32;;;;;;;17.27;8.52;;;;;;;;;;5051587;28;20129;-81
2023/02/23 09:26:05;;;;;;;15.07;8.73;;;;;;;;;;5029606;28;20107;-82
2023/02/23 09:28:33;;;;;;;17.38;9.05;;;;;;;;;;5014740;28;20152;-82
2023/02/23 09:31:12;;;;;;;16.45;9.20;;;;;;;;;;5032204;28;20522;-82
2023/02/23 09:33:39;;;;;;;17.33;9.32;;;;;;;;;;5031769;28;20056;-80
2023/02/23 09:36:11;;;;;;;15.23;8.55;;;;;;;;;;5033207;28;20050;-81
2023/02/23 09:38:57;;;;;;;15.65;8.45;;;;;;;;;;5030837;28;20556;-81
2023/02/23 09:41:24;;;;;;;;;;;;;;;;;;5032014;28;20081;-80
2023/02/23 09:43:56;;;;;;;16.08;8.10;;;;;;;;;;5031520;28;19967;-81
2023/02/23 09:46:29;;;;;;;16.20;8.50;;;;;;;;;;5033021;28;20118;-81
2023/02/23 09:48:56;;;;;;;16.98;8.80;;;;;;;;;;5034283;28;20136;-80
2023/02/23 09:51:23;;;;;;;14.48;8.52;;;;;;;;;;5035387;28;20113;-80
2023/02/23 09:53:52;;;;;;;16.70;8.95;;;;;;;;;;5036923;28;20065;-81
2023/02/23 09:56:31;;;;;;;18.38;8.75;;;;;;;;;;5035375;28;20071;-80
2023/02/23 09:58:59;;;;;;;16.48;9.23;;;;;;;;;;5035634;28;20045;-81
2023/02/23 10:01:40;;;;;;;15.95;9.25;;;;;;;;;;5048467;28;20109;-80
2023/02/23 10:04:27;;;;;;;14.93;8.48;;;;;;;;;;5047139;28;20073;-82
2023/02/23 10:06:57;;;;;;;16.63;8.75;;;;;;;;;;5033236;28;20065;-80
2023/02/23 10:09:36;;;;;;;16.77;9.18;;;;;;;;;;5030348;28;20075;-80
2023/02/23 10:12:02;;;;;;;18.35;8.70;;;;;;;;;;5034678;28;20092;-82
2023/02/23 10:14:35;;;;;;;16.50;9.50;;;;;;;;;;5032385;28;20098;-81
2023/02/23 10:17:31;;;;;;;16.23;8.77;;;;;;;;;;5032688;28;20057;-81
2023/02/23 10:20:00;;;;;;;15.48;8.77;;;;;;;;;;5015166;28;20049;-79
2023/02/23 10:22:27;;;;;;;14.40;8.63;;;;;;;;;;5032543;28;20061;-80
2023/02/23 10:25:03;;;;;;;16.38;9.18;;;;;;;;;;5030680;28;20041;-80
2023/02/23 10:27:37;;;;;;;16.20;9.77;;;;;;;;;;5047467;28;20078;-80
2023/02/23 10:30:11;;;;;;;16.05;9.25;;;;;;;;;;5053258;28;20045;-82
2023/02/23 10:32:50;;;;;;;19.70;10.20;;;;;;;;;;5051795;28;20483;-81
2023/02/23 10:35:19;;;;;;;17.58;9.77;;;;;;;;;;5052401;28;20119;-83
2023/02/23 10:37:46;;;;;;;15.60;9.63;;;;;;;;;;5054169;28;20095;-81
2023/02/23 10:40:14;;;;;;;15.32;9.15;;;;;;;;;;5054809;28;20147;-81
2023/02/23 10:42:41;;;;;;;18.13;9.55;;;;;;;;;;5034986;28;20048;-80
2023/02/23 10:45:17;;;;;;;20.45;9.98;;;;;;;;;;5053037;28;20049;-81
2023/02/23 10:47:44;;;;;;;16.83;9.27;;;;;;;;;;5052412;28;20073;-81
2023/02/23 10:50:12;;;;;;;18.75;9.43;;;;;;;;;;5052913;28;20065;-81
2023/02/23 10:52:44;;;;;;;19.50;9.93;;;;;;;;;;5054176;28;20424;-80
2023/02/23 10:55:30;;;;;;;18.30;10.27;;;;;;;;;;5033694;28;20056;-82
2023/02/23 10:58:01;;;;;;;20.15;10.77;;;;;;;;;;5035764;28;20057;-82
2023/02/23 11:00:31;;;;;;;18.88;11.02;;;;;;;;;;5053607;28;20049;-80
2023/02/23 11:02:59;;;;;;;23.85;11.68;;;;;;;;;;5054665;28;20056;-83
2023/02/23 11:05:55;;;;;;;22.92;11.15;;;;;;;;;;5037269;28;20517;-82
2023/02/23 11:08:24;;;;;;;22.20;11.98;;;;;;;;;;5046930;28;20049;-82
2023/02/23 11:10:54;;;;;;;23.00;11.88;;;;;;;;;;5055972;28;20076;-82
2023/02/23 11:13:28;;;;;;;22.50;12.57;;;;;;;;;;5057953;28;20063;-81
2023/02/23 11:15:59;;;;;;;27.23;13.75;;;;;;;;;;5058075;28;20139;-83
2023/02/23 11:18:25;;;;;;;29.08;14.70;;;;;;;;;;5070428;28;20055;-80
2023/02/23 11:20:53;;;;;;;25.00;13.07;;;;;;;;;;5070215;28;20079;-79
2023/02/23 11:23:30;;;;;;;23.42;12.65;;;;;;;;;;5071173;28;20045;-82
2023/02/23 11:26:01;;;;;;;28.33;13.63;;;;;;;;;;5065745;28;20045;-81
2023/02/23 11:28:35;;;;;;;29.35;14.77;;;;;;;;;;5032741;28;20473;-80
2023/02/23 11:31:03;;;;;;;30.88;14.88;;;;;;;;;;5033752;28;20220;-81
2023/02/23 11:33:34;;;;;;;28.02;14.82;;;;;;;;;;5032222;28;20403;-82
2023/02/23 11:36:24;;;;;;;28.92;14.70;;;;;;;;;;5032733;28;20502;-81
2023/02/23 11:38:59;;;;;;;30.63;16.27;;;;;;;;;;5030635;28;20099;-80
2023/02/23 11:41:26;;;;;;;27.02;14.90;;;;;;;;;;5033033;28;20052;-81
2023/02/23 11:43:57;;;;;;;28.52;15.27;;;;;;;;;;5032616;28;20092;-82
2023/02/23 11:46:23;;;;;;;35.95;17.63;;;;;;;;;;5032938;28;20132;-82
2023/02/23 11:48:51;;;;;;;30.58;14.75;;;;;;;;;;5032381;28;20050;-80
2023/02/23 11:51:30;;;;;;;28.15;14.40;;;;;;;;;;5032385;28;20494;-80
2023/02/23 11:53:57;;;;;;;27.15;12.63;;;;;;;;;;5012647;28;20548;-80
2023/02/23 11:56:24;;;;;;;25.58;14.02;;;;;;;;;;5032270;28;20502;-81
2023/02/23 11:58:57;;;;;;;26.67;14.15;;;;;;;;;;5016192;28;20045;-81
2023/02/23 12:01:53;;;;;;;29.63;15.18;;;;;;;;;;5033855;28;20099;-81
2023/02/23 12:04:29;;;;;;;26.33;13.87;;;;;;;;;;5014945;28;20126;-80
2023/02/23 12:07:15;;;;;;;25.42;14.00;;;;;;;;;;5032122;28;20421;-82
2023/02/23 12:09:42;;;;;;;22.42;13.98;;;;;;;;;;5030316;28;20057;-81
2023/02/23 12:12:11;;;;;;;26.02;13.57;;;;;;;;;;5032905;28;20050;-80
2023/02/23 12:14:41;;;;;;;28.63;14.15;;;;;;;;;;5032261;28;20441;-82
2023/02/23 12:17:13;;;;;;;27.15;14.02;;;;;;;;;;5032337;28;20071;-81
2023/02/23 12:19:44;;;;;;;23.65;12.95;;;;;;;;;;5031807;28;20476;-80
2023/02/23 12:22:12;;;;;;;27.08;15.10;;;;;;;;;;5015312;28;20593;-81
2023/02/23 12:24:55;;;;;;;26.13;13.55;;;;;;;;;;5030828;28;20508;-83
2023/02/23 12:27:36;;;;;;;23.58;12.73;;;;;;;;;;5045142;28;20667;-81
2023/02/23 12:30:18;;;;;;;25.08;13.50;;;;;;;;;;5051238;28;20139;-80
2023/02/23 12:32:48;;;;;;;24.15;13.35;;;;;;;;;;5053750;28;20489;-80
2023/02/23 12:35:20;;;;;;;22.92;12.18;;;;;;;;;;5052430;28;20151;-82
2023/02/23 12:37:50;;;;;;;22.63;13.10;;;;;;;;;;5052124;28;20456;-81
2023/02/23 12:40:29;;;;;;;25.73;13.30;;;;;;;;;;5050185;28;20053;-81
2023/02/23 12:43:03;;;;;;;22.38;12.45;;;;;;;;;;5034385;28;20126;-83
2023/02/23 12:45:36;;;;;;;21.85;12.60;;;;;;;;;;5051729;28;20056;-80
2023/02/23 12:48:21;;;;;;;27.27;14.38;;;;;;;;;;5050997;28;20136;-82
2023/02/23 12:50:52;;;;;;;24.27;13.83;;;;;;;;;;5056860;28;20055;-82
2023/02/23 12:53:21;;;;;;;21.88;12.63;;;;;;;;;;5062774;28;20152;-82
2023/02/23 12:56:03;;;;;;;24.38;13.88;;;;;;;;;;5051252;28;20049;-81
2023/02/23 12:58:35;;;;;;;25.15;13.55;;;;;;;;;;5051888;28;20076;-82
2023/02/23 13:01:11;;;;;;;25.77;14.13;;;;;;;;;;5052188;28;20140;-84
2023/02/23 13:03:52;;;;;;;30.58;14.85;;;;;;;;;;5052398;28;20126;-82
2023/02/23 13:06:29;;;;;;;30.13;14.85;;;;;;;;;;5053215;28;20045;-80
2023/02/23 13:09:11;;;;;;;26.55;14.32;;;;;;;;;;5050584;28;20279;-81
2023/02/23 13:11:56;;;;;;;28.17;14.32;;;;;;;;;;5057177;28;20132;-81
2023/02/23 13:14:38;;;;;;;29.67;15.63;;;;;;;;;;5051986;28;20049;-81
2023/02/23 13:17:16;;;;;;;28.27;15.15;;;;;;;;;;5052474;28;20065;-81
2023/02/23 13:19:55;;;;;;;29.05;15.13;;;;;;;;;;5052057;28;20052;-82
2023/02/23 13:22:48;;;;;;;31.42;16.08;;;;;;;;;;5052828;28;20140;-81
2023/02/23 13:25:23;;;;;;;31.15;15.93;;;;;;;;;;5033892;28;20049;-81
2023/02/23 13:27:56;;;;;;;30.92;16.30;;;;;;;;;;5051707;28;20041;-80
2023/02/23 13:30:23;;;;;;;27.73;15.77;;;;;;;;;;5034823;28;20128;-82
2023/02/23 13:32:49;;;;;;;28.85;15.10;;;;;;;;;;5053016;28;20049;-80
2023/02/23 13:35:17;;;;;;;30.40;16.83;;;;;;;;;;5052240;28;20053;-82
2023/02/23 13:37:50;;;;;;;31.38;16.52;;;;;;;;;;5052735;28;20059;-82
2023/02/23 13:40:34;;;;;;;30.65;15.65;;;;;;;;;;5050428;28;20053;-82
2023/02/23 13:43:16;;;;;;;30.08;15.57;;;;;;;;;;5052267;28;20041;-80
2023/02/23 13:45:58;;;;;;;29.38;14.85;;;;;;;;;;5056369;28;20098;-81
2023/02/23 13:48:44;;;;;;;29.90;15.63;;;;;;;;;;5053227;28;20045;-81
2023/02/23 13:51:25;;;;;;;29.02;16.27;;;;;;;;;;5056243;28;20140;-82
2023/02/23 13:53:59;;;;;;;31.05;16.67;;;;;;;;;;5034770;28;20875;-82
2023/02/23 13:56:28;;;;;;;32.70;16.05;;;;;;;;;;5055611;28;20083;-81
2023/02/23 13:59:00;;;;;;;35.33;16.80;;;;;;;;;;5055565;28;20128;-80
2023/02/23 14:01:42;;;;;;;28.25;15.55;;;;;;;;;;5055789;28;20052;-81
2023/02/23 14:04:13;;;;;;;29.23;15.57;;;;;;;;;;5055220;28;20053;-82
2023/02/23 14:06:49;;;;;;;33.70;16.73;;;;;;;;;;5056051;28;20057;-81
2023/02/23 14:09:22;;;;;;;29.58;15.45;;;;;;;;;;5053911;28;20072;-82
2023/02/23 14:12:01;;;;;;;31.05;15.48;;;;;;;;;;5056427;28;20527;-84
2023/02/23 14:14:30;;;;;;;29.38;16.25;;;;;;;;;;5056043;28;20469;-82
2023/02/23 14:17:20;;;;;;;33.38;16.27;;;;;;;;;;5055249;28;20065;-80
2023/02/23 14:19:49;;;;;;;29.50;15.88;;;;;;;;;;5049850;28;20097;-80
2023/02/23 14:22:17;;;;;;;29.05;15.60;;;;;;;;;;5058632;28;20279;-81
2023/02/23 14:24:43;;;;;;;26.58;14.30;;;;;;;;;;5052654;28;20129;-80
2023/02/23 14:27:24;;;;;;;30.15;15.50;;;;;;;;;;5041106;28;20149;-81
2023/02/23 14:30:09;;;;;;;27.90;15.60;;;;;;;;;;5034234;28;20450;-81
2023/02/23 14:32:39;;;;;;;32.95;17.13;;;;;;;;;;5032929;28;20464;-79
2023/02/23 14:35:26;;;;;;;27.85;15.50;;;;;;;;;;5033187;28;20077;-80
2023/02/23 14:37:59;;;;;;;33.90;16.88;;;;;;;;;;5033334;28;20553;-82
2023/02/23 14:40:30;;;;;;;28.60;16.60;;;;;;;;;;5031260;28;20167;-81
2023/02/23 14:42:59;;;;;;;32.28;16.92;;;;;;;;;;5033464;28;20053;-82
2023/02/23 14:45:28;;;;;;;33.88;16.30;;;;;;;;;;5033226;28;20088;-80
2023/02/23 14:47:56;;;;;;;30.67;16.10;;;;;;;;;;5032234;28;20053;-82
2023/02/23 14:50:33;;;;;;;31.80;17.42;;;;;;;;;;5034339;28;20069;-81
2023/02/23 14:53:03;;;;;;;32.50;17.27;;;;;;;;;;5017459;28;20072;-82
2023/02/23 14:55:31;;;;;;;32.13;16.55;;;;;;;;;;5019650;28;20079;-82
2023/02/23 14:57:59;;;;;;;35.08;17.70;;;;;;;;;;5045916;28;20056;-81
2023/02/23 15:00:31;;;;;;;28.92;16.08;;;;;;;;;;5048970;28;20053;-82
2023/02/23 15:02:59;;;;;;;29.50;16.40;;;;;;;;;;5041138;28;20268;-82
2023/02/23 15:05:28;;;;;;;31.80;16.50;;;;;;;;;;5046812;28;20045;-80
2023/02/23 15:07:57;;;;;;;30.95;16.42;;;;;;;;;;5048636;28;20061;-81
2023/02/23 15:10:28;;;;;;;32.15;17.08;;;;;;;;;;5045871;28;20289;-81
2023/02/23 15:12:55;;;;;;;38.30;18.55;;;;;;;;;;5042082;28;20145;-81
2023/02/23 15:15:23;;;;;;;34.90;18.00;;;;;;;;;;5041919;28;20054;-79
2023/02/23 15:17:52;;;;;;;36.45;18.10;;;;;;;;;;5041285;28;20277;-80
2023/02/23 15:20:31;;;;;;;33.65;17.85;;;;;;;;;;5019698;28;20059;-81
2023/02/23 15:22:58;;;;;;;36.92;19.00;;;;;;;;;;5042193;28;20046;-80
2023/02/23 15:25:33;;;;;;;38.63;19.10;;;;;;;;;;5040229;28;20052;-82
2023/02/23 15:28:08;;;;;;;45.55;20.10;;;;;;;;;;5057098;28;20451;-81
2023/02/23 15:30:35;;;;;;;;;;;;;;;;;;5055086;28;20045;-83
2023/02/23 15:33:01;;;;;;;;;;;;;;;;;;5056124;28;19920;-83
2023/02/23 15:35:28;;;;;;;48.33;21.10;;;;;;;;;;5037802;28;19920;-84
2023/02/23 15:37:57;;;;;;;44.95;23.10;;;;;;;;;;5055120;28;20116;-83
2023/02/23 15:40:43;;;;;;;51.67;24.13;;;;;;;;;;5055484;28;20049;-82
2023/02/23 15:43:10;;;;;;;58.65;27.15;;;;;;;;;;5037801;28;20061;-83
2023/02/23 15:46:03;;;;;;;58.60;26.98;;;;;;;;;;5037904;28;20051;-83
2023/02/23 15:48:39;;;;;;;55.10;25.95;;;;;;;;;;5051432;28;20330;-83
2023/02/23 15:51:05;;;;;;;63.20;26.40;;;;;;;;;;5056931;28;20075;-82
2023/02/23 15:53:33;;;;;;;64.55;28.17;;;;;;;;;;5064217;28;20091;-82
2023/02/23 15:56:21;;;;;;;66.65;30.17;;;;;;;;;;5038614;28;20097;-83
2023/02/23 15:58:49;;;;;;;72.47;30.80;;;;;;;;;;5057990;28;20052;-81
2023/02/23 16:01:27;;;;;;;70.37;30.50;;;;;;;;;;5042864;28;20063;-83
2023/02/23 16:03:55;;;;;;;68.35;31.67;;;;;;;;;;5056412;28;20334;-84